sensor_id;sensor_type;location;lat;lon;timestamp;temperature;humidity
72919;SHT30;68407;55.694;26.994;2023-12-20T00:02:22;5.7;83.7
72919;SHT30;68407;55.694;26.994;2023-12-20T00:06:42;5.6;83.5
72919;SHT30;68407;55.694;26.994;2023-12-20T00:11:42;5.6;83.3
72919;SHT30;68407;55.694;26.994;2023-12-20T00:16:42;5.6;83.4
72919;SHT30;68407;55.694;26.994;2023-12-20T00:21:50;5.5;83.7
72919;SHT30;68407;55.694;26.994;2023-12-20T00:27:20;5.4;84.1
72919;SHT30;68407;55.694;26.994;2023-12-20T00:31:50;5.3;84.5
72919;SHT30;68407;55.694;26.994;2023-12-20T00:37:03;5.3;84.8
72919;SHT30;68407;55.694;26.994;2023-12-20T00:42:20;5.2;85.1
72919;SHT30;68407;55.694;26.994;2023-12-20T00:47:20;5.2;85.3
72919;SHT30;68407;55.694;26.994;2023-12-20T00:52:18;5.2;85.7
72919;SHT30;68407;55.694;26.994;2023-12-20T00:56:58;5.2;85.9
72919;SHT30;68407;55.694;26.994;2023-12-20T01:01:52;5.2;85.8
72919;SHT30;68407;55.694;26.994;2023-12-20T01:06:34;5.2;86
72919;SHT30;68407;55.694;26.994;2023-12-20T01:11:42;5.2;86.1
72919;SHT30;68407;55.694;26.994;2023-12-20T01:17:20;5.2;86.4
72919;SHT30;68407;55.694;26.994;2023-12-20T01:22:00;5.1;86.6
72919;SHT30;68407;55.694;26.994;2023-12-20T01:27:10;5.2;86.9
72919;SHT30;68407;55.694;26.994;2023-12-20T01:32:10;5.2;87.2
72919;SHT30;68407;55.694;26.994;2023-12-20T01:37:10;5.1;87.8
72919;SHT30;68407;55.694;26.994;2023-12-20T01:42:18;5;88.4
72919;SHT30;68407;55.694;26.994;2023-12-20T01:46:34;4.9;88.8
72919;SHT30;68407;55.694;26.994;2023-12-20T01:52:20;4.9;89.2
72919;SHT30;68407;55.694;26.994;2023-12-20T01:56:48;4.9;89.5
72919;SHT30;68407;55.694;26.994;2023-12-20T02:01:35;4.8;89.7
72919;SHT30;68407;55.694;26.994;2023-12-20T02:07:20;4.7;89.9
72919;SHT30;68407;55.694;26.994;2023-12-20T02:11:52;4.7;89.9
72919;SHT30;68407;55.694;26.994;2023-12-20T02:16:42;4.7;89.9
72919;SHT30;68407;55.694;26.994;2023-12-20T02:22:08;4.6;89.8
72919;SHT30;68407;55.694;26.994;2023-12-20T02:27:10;4.6;89.8
72919;SHT30;68407;55.694;26.994;2023-12-20T02:32:20;4.6;90
72919;SHT30;68407;55.694;26.994;2023-12-20T02:36:42;4.6;90
72919;SHT30;68407;55.694;26.994;2023-12-20T02:42:00;4.5;90.1
72919;SHT30;68407;55.694;26.994;2023-12-20T02:47:10;4.5;90.2
72919;SHT30;68407;55.694;26.994;2023-12-20T02:52:20;4.4;90.4
72919;SHT30;68407;55.694;26.994;2023-12-20T02:57:10;4.4;90.4
72919;SHT30;68407;55.694;26.994;2023-12-20T03:02:10;4.4;90.4
72919;SHT30;68407;55.694;26.994;2023-12-20T03:06:52;4.4;90.4
72919;SHT30;68407;55.694;26.994;2023-12-20T03:12:10;4.4;90.4
72919;SHT30;68407;55.694;26.994;2023-12-20T03:17:20;4.4;90.4
72919;SHT30;68407;55.694;26.994;2023-12-20T03:21:42;4.4;90.4
72919;SHT30;68407;55.694;26.994;2023-12-20T03:26:34;4.4;90.4
72919;SHT30;68407;55.694;26.994;2023-12-20T03:31:42;4.4;90.4
72919;SHT30;68407;55.694;26.994;2023-12-20T03:36:36;4.3;90.6
72919;SHT30;68407;55.694;26.994;2023-12-20T03:42:20;4.3;90.7
72919;SHT30;68407;55.694;26.994;2023-12-20T03:47:11;4.3;90.8
72919;SHT30;68407;55.694;26.994;2023-12-20T03:52:05;4.3;90.8
72919;SHT30;68407;55.694;26.994;2023-12-20T03:56:43;4.3;90.8
72919;SHT30;68407;55.694;26.994;2023-12-20T04:01:37;4.3;90.8
72919;SHT30;68407;55.694;26.994;2023-12-20T04:07:23;4.3;90.7
72919;SHT30;68407;55.694;26.994;2023-12-20T04:11:59;4.3;90.7
72919;SHT30;68407;55.694;26.994;2023-12-20T04:17:11;4.3;90.7
72919;SHT30;68407;55.694;26.994;2023-12-20T04:21:42;4.2;90.7
72919;SHT30;68407;55.694;26.994;2023-12-20T04:26:45;4.1;90.7
72919;SHT30;68407;55.694;26.994;2023-12-20T04:32:21;4;90.8
72919;SHT30;68407;55.694;26.994;2023-12-20T04:37:11;3.9;90.9
72919;SHT30;68407;55.694;26.994;2023-12-20T04:42:10;3.8;91.1
72919;SHT30;68407;55.694;26.994;2023-12-20T04:46:50;3.7;91.2
72919;SHT30;68407;55.694;26.994;2023-12-20T04:52:13;3.6;91.2
72919;SHT30;68407;55.694;26.994;2023-12-20T04:57:21;3.6;91.3
72919;SHT30;68407;55.694;26.994;2023-12-20T05:01:35;3.5;91.4
72919;SHT30;68407;55.694;26.994;2023-12-20T05:06:41;3.5;91.5
72919;SHT30;68407;55.694;26.994;2023-12-20T05:11:43;3.6;91.7
72919;SHT30;68407;55.694;26.994;2023-12-20T05:17:11;3.7;91.7
72919;SHT30;68407;55.694;26.994;2023-12-20T05:22:11;3.7;91.5
72919;SHT30;68407;55.694;26.994;2023-12-20T05:27:11;3.6;91.2
72919;SHT30;68407;55.694;26.994;2023-12-20T05:32:11;3.6;91.2
72919;SHT30;68407;55.694;26.994;2023-12-20T05:36:45;3.6;91.2
72919;SHT30;68407;55.694;26.994;2023-12-20T05:42:11;3.5;91.1
72919;SHT30;68407;55.694;26.994;2023-12-20T05:46:45;3.5;91.1
72919;SHT30;68407;55.694;26.994;2023-12-20T05:51:59;3.4;91.1
72919;SHT30;68407;55.694;26.994;2023-12-20T05:56:35;3.3;91.2
72919;SHT30;68407;55.694;26.994;2023-12-20T06:01:35;3.2;91.3
72919;SHT30;68407;55.694;26.994;2023-12-20T06:06:45;3.1;91.3
72919;SHT30;68407;55.694;26.994;2023-12-20T06:11:53;3;91.3
72919;SHT30;68407;55.694;26.994;2023-12-20T06:17:11;2.9;91.3
72919;SHT30;68407;55.694;26.994;2023-12-20T06:22:03;2.9;91.3
72919;SHT30;68407;55.694;26.994;2023-12-20T06:26:35;2.8;91.3
72919;SHT30;68407;55.694;26.994;2023-12-20T06:32:01;2.8;91.4
72919;SHT30;68407;55.694;26.994;2023-12-20T06:37:21;2.7;91.5
72919;SHT30;68407;55.694;26.994;2023-12-20T06:42:01;2.7;91.7
72919;SHT30;68407;55.694;26.994;2023-12-20T06:46:35;2.8;91.6
72919;SHT30;68407;55.694;26.994;2023-12-20T06:51:43;2.9;91.2
72919;SHT30;68407;55.694;26.994;2023-12-20T06:57:11;3;91.1
72919;SHT30;68407;55.694;26.994;2023-12-20T07:02:19;3.1;90.9
72919;SHT30;68407;55.694;26.994;2023-12-20T07:07:03;3.2;90.7
72919;SHT30;68407;55.694;26.994;2023-12-20T07:12:13;3.2;90.2
72919;SHT30;68407;55.694;26.994;2023-12-20T07:16:37;3.2;90.1
72919;SHT30;68407;55.694;26.994;2023-12-20T07:21:45;3.3;90
72919;SHT30;68407;55.694;26.994;2023-12-20T07:27:21;3.4;89.8
72919;SHT30;68407;55.694;26.994;2023-12-20T07:31:35;3.4;89.8
72919;SHT30;68407;55.694;26.994;2023-12-20T07:36:35;3.5;89.5
72919;SHT30;68407;55.694;26.994;2023-12-20T07:41:35;3.5;88.7
72919;SHT30;68407;55.694;26.994;2023-12-20T07:47:09;3.5;88.3
72919;SHT30;68407;55.694;26.994;2023-12-20T07:52:17;3.6;88.1
72919;SHT30;68407;55.694;26.994;2023-12-20T07:57:21;3.6;87.6
72919;SHT30;68407;55.694;26.994;2023-12-20T08:02:01;3.5;87.3
72919;SHT30;68407;55.694;26.994;2023-12-20T08:06:51;3.5;86.8
72919;SHT30;68407;55.694;26.994;2023-12-20T08:12:05;3.5;86.4
72919;SHT30;68407;55.694;26.994;2023-12-20T08:17:21;3.5;85.7
72919;SHT30;68407;55.694;26.994;2023-12-20T08:21:35;3.5;85.5
72919;SHT30;68407;55.694;26.994;2023-12-20T08:26:35;3.5;85.2
72919;SHT30;68407;55.694;26.994;2023-12-20T08:31:52;3.5;85.2
72919;SHT30;68407;55.694;26.994;2023-12-20T08:37:13;3.6;85.5
72919;SHT30;68407;55.694;26.994;2023-12-20T08:42:21;3.6;85
72919;SHT30;68407;55.694;26.994;2023-12-20T08:46:35;3.6;85
72919;SHT30;68407;55.694;26.994;2023-12-20T08:52:09;3.7;84.9
72919;SHT30;68407;55.694;26.994;2023-12-20T08:57:01;3.9;84.8
72919;SHT30;68407;55.694;26.994;2023-12-20T09:01:43;3.9;84
72919;SHT30;68407;55.694;26.994;2023-12-20T09:07:20;3.8;83.9
72919;SHT30;68407;55.694;26.994;2023-12-20T09:11:43;3.8;84
72919;SHT30;68407;55.694;26.994;2023-12-20T09:16:35;3.8;83.6
72919;SHT30;68407;55.694;26.994;2023-12-20T09:21:35;3.8;83.6
72919;SHT30;68407;55.694;26.994;2023-12-20T09:27:11;3.9;83.5
72919;SHT30;68407;55.694;26.994;2023-12-20T09:32:21;4;83.5
72919;SHT30;68407;55.694;26.994;2023-12-20T09:37:01;4.1;83
72919;SHT30;68407;55.694;26.994;2023-12-20T09:42:13;4.2;82.9
72919;SHT30;68407;55.694;26.994;2023-12-20T09:46:49;4.2;82.8
72919;SHT30;68407;55.694;26.994;2023-12-20T09:51:55;4.1;82.6
72919;SHT30;68407;55.694;26.994;2023-12-20T09:57:25;4;82.2
72919;SHT30;68407;55.694;26.994;2023-12-20T10:01:51;4;82.3
72919;SHT30;68407;55.694;26.994;2023-12-20T10:06:35;4;82.1
72919;SHT30;68407;55.694;26.994;2023-12-20T10:11:35;4;82.3
72919;SHT30;68407;55.694;26.994;2023-12-20T10:17:11;4.2;81.9
72919;SHT30;68407;55.694;26.994;2023-12-20T10:22:21;4.1;82.1
72919;SHT30;68407;55.694;26.994;2023-12-20T10:27:03;4.2;82
72919;SHT30;68407;55.694;26.994;2023-12-20T10:31:37;4.2;82
72919;SHT30;68407;55.694;26.994;2023-12-20T10:37:05;4.2;81.9
72919;SHT30;68407;55.694;26.994;2023-12-20T10:41:35;4.2;81.8
72919;SHT30;68407;55.694;26.994;2023-12-20T10:46:59;4.2;81.7
72919;SHT30;68407;55.694;26.994;2023-12-20T10:51:35;4.3;81.7
72919;SHT30;68407;55.694;26.994;2023-12-20T10:56:35;4.3;81.5
72919;SHT30;68407;55.694;26.994;2023-12-20T11:01:53;4.2;81.6
72919;SHT30;68407;55.694;26.994;2023-12-20T11:07:16;4.2;81.8
72919;SHT30;68407;55.694;26.994;2023-12-20T11:12:24;4.3;81.5
72919;SHT30;68407;55.694;26.994;2023-12-20T11:17:11;4.2;80.8
72919;SHT30;68407;55.694;26.994;2023-12-20T11:22:21;4.2;80.6
72919;SHT30;68407;55.694;26.994;2023-12-20T11:27:03;4.2;80.7
72919;SHT30;68407;55.694;26.994;2023-12-20T11:32:01;4.3;80.8
72919;SHT30;68407;55.694;26.994;2023-12-20T11:37:21;4.4;81
72919;SHT30;68407;55.694;26.994;2023-12-20T11:42:13;4.4;80.8
72919;SHT30;68407;55.694;26.994;2023-12-20T11:47:17;4.2;81
72919;SHT30;68407;55.694;26.994;2023-12-20T11:52:11;4.3;81.4
72919;SHT30;68407;55.694;26.994;2023-12-20T11:56:45;4.4;81.3
72919;SHT30;68407;55.694;26.994;2023-12-20T12:02:03;4.4;81.1
72919;SHT30;68407;55.694;26.994;2023-12-20T12:07:21;4.3;81.5
72919;SHT30;68407;55.694;26.994;2023-12-20T12:12:03;4.3;81.7
72919;SHT30;68407;55.694;26.994;2023-12-20T12:17:11;4.3;81.7
72919;SHT30;68407;55.694;26.994;2023-12-20T12:22:04;4.4;81.5
72919;SHT30;68407;55.694;26.994;2023-12-20T12:27:21;4.2;80.9
72919;SHT30;68407;55.694;26.994;2023-12-20T12:31:45;4;81.5
72919;SHT30;68407;55.694;26.994;2023-12-20T12:36:55;4;82
72919;SHT30;68407;55.694;26.994;2023-12-20T12:42:23;3.8;81.9
72919;SHT30;68407;55.694;26.994;2023-12-20T12:46:37;3.6;81.8
72919;SHT30;68407;55.694;26.994;2023-12-20T12:52:25;3.4;82.3
72919;SHT30;68407;55.694;26.994;2023-12-20T12:57:21;3.4;82.6
72919;SHT30;68407;55.694;26.994;2023-12-20T13:02:03;3.5;83.1
72919;SHT30;68407;55.694;26.994;2023-12-20T13:07:05;3.6;82.9
72919;SHT30;68407;55.694;26.994;2023-12-20T13:11:35;3.5;82.7
72919;SHT30;68407;55.694;26.994;2023-12-20T13:16:55;3.5;82.9
72919;SHT30;68407;55.694;26.994;2023-12-20T13:21:53;3.6;83
72919;SHT30;68407;55.694;26.994;2023-12-20T13:26:35;3.7;82.9
72919;SHT30;68407;55.694;26.994;2023-12-20T13:32:15;3.7;83.1
72919;SHT30;68407;55.694;26.994;2023-12-20T13:36:51;3.7;82.8
72919;SHT30;68407;55.694;26.994;2023-12-20T13:42:23;3.6;82.9
72919;SHT30;68407;55.694;26.994;2023-12-20T13:47:23;3.5;83.2
72919;SHT30;68407;55.694;26.994;2023-12-20T13:51:37;3.4;83.5
72919;SHT30;68407;55.694;26.994;2023-12-20T13:57:05;3.4;83.6
72919;SHT30;68407;55.694;26.994;2023-12-20T14:01:45;3.4;83.7
72919;SHT30;68407;55.694;26.994;2023-12-20T14:07:11;3.4;83.8
72919;SHT30;68407;55.694;26.994;2023-12-20T14:11:35;3.3;84
72919;SHT30;68407;55.694;26.994;2023-12-20T14:16:35;3.1;84.3
72919;SHT30;68407;55.694;26.994;2023-12-20T14:22:21;2.9;85.1
72919;SHT30;68407;55.694;26.994;2023-12-20T14:26:43;2.8;86
72919;SHT30;68407;55.694;26.994;2023-12-20T14:31:39;2.8;86.6
72919;SHT30;68407;55.694;26.994;2023-12-20T14:37:11;2.8;86.9
72919;SHT30;68407;55.694;26.994;2023-12-20T14:42:11;2.8;87.1
72919;SHT30;68407;55.694;26.994;2023-12-20T14:47:23;2.9;86.9
72919;SHT30;68407;55.694;26.994;2023-12-20T14:52:01;2.9;86.9
72919;SHT30;68407;55.694;26.994;2023-12-20T14:56:39;2.9;86.7
72919;SHT30;68407;55.694;26.994;2023-12-20T15:01:35;2.9;86.6
72919;SHT30;68407;55.694;26.994;2023-12-20T15:07:03;2.9;86.5
72919;SHT30;68407;55.694;26.994;2023-12-20T15:11:55;2.9;86.7
72919;SHT30;68407;55.694;26.994;2023-12-20T15:16:51;2.9;86.9
72919;SHT30;68407;55.694;26.994;2023-12-20T15:22:21;3;86.8
72919;SHT30;68407;55.694;26.994;2023-12-20T15:27:25;2.9;87
72919;SHT30;68407;55.694;26.994;2023-12-20T15:32:11;2.8;87
72919;SHT30;68407;55.694;26.994;2023-12-20T15:37:09;2.8;87.1
72919;SHT30;68407;55.694;26.994;2023-12-20T15:42:01;2.8;87.1
72919;SHT30;68407;55.694;26.994;2023-12-20T15:47:23;2.8;87.3
72919;SHT30;68407;55.694;26.994;2023-12-20T15:51:33;2.8;87.3
72919;SHT30;68407;55.694;26.994;2023-12-20T15:57:09;2.7;87.6
72919;SHT30;68407;55.694;26.994;2023-12-20T16:02:17;2.7;87.9
72919;SHT30;68407;55.694;26.994;2023-12-20T16:06:33;2.8;87.9
72919;SHT30;68407;55.694;26.994;2023-12-20T16:12:19;2.8;87.8
72919;SHT30;68407;55.694;26.994;2023-12-20T16:16:35;2.8;87.6
72919;SHT30;68407;55.694;26.994;2023-12-20T16:22:25;2.7;87.8
72919;SHT30;68407;55.694;26.994;2023-12-20T16:27:25;2.6;87.8
72919;SHT30;68407;55.694;26.994;2023-12-20T16:32:01;2.5;88
72919;SHT30;68407;55.694;26.994;2023-12-20T16:36:48;2.6;88
72919;SHT30;68407;55.694;26.994;2023-12-20T16:42:21;2.6;87.9
72919;SHT30;68407;55.694;26.994;2023-12-20T16:46:37;2.6;87.9
72919;SHT30;68407;55.694;26.994;2023-12-20T16:51:45;2.6;87.8
72919;SHT30;68407;55.694;26.994;2023-12-20T16:56:50;2.6;87.9
72919;SHT30;68407;55.694;26.994;2023-12-20T17:02:03;2.6;87.9
72919;SHT30;68407;55.694;26.994;2023-12-20T17:07:03;2.6;88.1
72919;SHT30;68407;55.694;26.994;2023-12-20T17:12:11;2.6;88.1
72919;SHT30;68407;55.694;26.994;2023-12-20T17:17:23;2.6;88
72919;SHT30;68407;55.694;26.994;2023-12-20T17:21:53;2.5;88.1
72919;SHT30;68407;55.694;26.994;2023-12-20T17:26:35;2.5;88.4
72919;SHT30;68407;55.694;26.994;2023-12-20T17:31:43;2.5;88.7
72919;SHT30;68407;55.694;26.994;2023-12-20T17:37:01;2.5;88.9
72919;SHT30;68407;55.694;26.994;2023-12-20T17:41:47;2.5;89.2
72919;SHT30;68407;55.694;26.994;2023-12-20T17:46:46;2.5;89.3
72919;SHT30;68407;55.694;26.994;2023-12-20T17:52:23;2.6;89.3
72919;SHT30;68407;55.694;26.994;2023-12-20T17:56:55;2.6;89.3
72919;SHT30;68407;55.694;26.994;2023-12-20T18:02:19;2.5;89.4
72919;SHT30;68407;55.694;26.994;2023-12-20T18:07:23;2.5;89.3
72919;SHT30;68407;55.694;26.994;2023-12-20T18:11:35;2.5;89.3
72919;SHT30;68407;55.694;26.994;2023-12-20T18:17:03;2.6;89.2
72919;SHT30;68407;55.694;26.994;2023-12-20T18:22:15;2.6;89
72919;SHT30;68407;55.694;26.994;2023-12-20T18:26:55;2.6;88.8
72919;SHT30;68407;55.694;26.994;2023-12-20T18:31:51;2.7;88.7
72919;SHT30;68407;55.694;26.994;2023-12-20T18:36:53;2.8;88.6
72919;SHT30;68407;55.694;26.994;2023-12-20T18:42:25;2.8;88.4
72919;SHT30;68407;55.694;26.994;2023-12-20T18:47:03;2.8;88.5
72919;SHT30;68407;55.694;26.994;2023-12-20T18:52:23;2.8;88.6
72919;SHT30;68407;55.694;26.994;2023-12-20T18:57:09;2.8;88.6
72919;SHT30;68407;55.694;26.994;2023-12-20T19:01:45;2.9;88.5
72919;SHT30;68407;55.694;26.994;2023-12-20T19:06:35;2.9;88.5
72919;SHT30;68407;55.694;26.994;2023-12-20T19:11:35;2.9;88.5
72919;SHT30;68407;55.694;26.994;2023-12-20T19:16:35;2.9;88.4
72919;SHT30;68407;55.694;26.994;2023-12-20T19:21:59;2.9;88.5
72919;SHT30;68407;55.694;26.994;2023-12-20T19:26:37;2.9;88.5
72919;SHT30;68407;55.694;26.994;2023-12-20T19:32:03;2.9;88.6
72919;SHT30;68407;55.694;26.994;2023-12-20T19:37:05;2.9;88.6
72919;SHT30;68407;55.694;26.994;2023-12-20T19:42:13;2.9;88.6
72919;SHT30;68407;55.694;26.994;2023-12-20T19:46:57;2.9;88.6
72919;SHT30;68407;55.694;26.994;2023-12-20T19:52:11;2.8;88.6
72919;SHT30;68407;55.694;26.994;2023-12-20T19:56:35;2.8;88.6
72919;SHT30;68407;55.694;26.994;2023-12-20T20:01:37;2.8;88.8
72919;SHT30;68407;55.694;26.994;2023-12-20T20:06:37;2.8;88.7
72919;SHT30;68407;55.694;26.994;2023-12-20T20:12:03;2.9;88.6
72919;SHT30;68407;55.694;26.994;2023-12-20T20:16:43;2.9;88.6
72919;SHT30;68407;55.694;26.994;2023-12-20T20:22:23;2.9;88.5
72919;SHT30;68407;55.694;26.994;2023-12-20T20:26:55;2.9;88.4
72919;SHT30;68407;55.694;26.994;2023-12-20T20:32:23;2.9;88.3
72919;SHT30;68407;55.694;26.994;2023-12-20T20:37:21;2.8;88.1
72919;SHT30;68407;55.694;26.994;2023-12-20T20:42:01;2.8;88
72919;SHT30;68407;55.694;26.994;2023-12-20T20:47:01;2.8;87.9
72919;SHT30;68407;55.694;26.994;2023-12-20T20:51:37;2.7;87.7
72919;SHT30;68407;55.694;26.994;2023-12-20T20:56:53;2.7;87.7
72919;SHT30;68407;55.694;26.994;2023-12-20T21:02:13;2.7;87.7
72919;SHT30;68407;55.694;26.994;2023-12-20T21:07:13;2.7;87.8
72919;SHT30;68407;55.694;26.994;2023-12-20T21:11:45;2.7;87.7
72919;SHT30;68407;55.694;26.994;2023-12-20T21:16:49;2.6;87.8
72919;SHT30;68407;55.694;26.994;2023-12-20T21:21:39;2.7;87.8
72919;SHT30;68407;55.694;26.994;2023-12-20T21:27:23;2.7;87.9
72919;SHT30;68407;55.694;26.994;2023-12-20T21:31:55;2.7;87.8
72919;SHT30;68407;55.694;26.994;2023-12-20T21:36:43;2.8;87.6
72919;SHT30;68407;55.694;26.994;2023-12-20T21:42:03;2.7;87.6
72919;SHT30;68407;55.694;26.994;2023-12-20T21:46:53;2.8;87.6
72919;SHT30;68407;55.694;26.994;2023-12-20T21:52:21;2.8;87.5
72919;SHT30;68407;55.694;26.994;2023-12-20T21:56:51;2.8;87.5
72919;SHT30;68407;55.694;26.994;2023-12-20T22:01:35;2.8;87.6
72919;SHT30;68407;55.694;26.994;2023-12-20T22:07:01;2.8;87.6
72919;SHT30;68407;55.694;26.994;2023-12-20T22:11:57;2.8;87.6
72919;SHT30;68407;55.694;26.994;2023-12-20T22:17:23;2.9;87.5
72919;SHT30;68407;55.694;26.994;2023-12-20T22:22:21;2.9;87.5
72919;SHT30;68407;55.694;26.994;2023-12-20T22:26:35;2.9;87.4
72919;SHT30;68407;55.694;26.994;2023-12-20T22:31:45;2.9;87.6
72919;SHT30;68407;55.694;26.994;2023-12-20T22:36:53;3;87.5
72919;SHT30;68407;55.694;26.994;2023-12-20T22:42:11;3;87.5
72919;SHT30;68407;55.694;26.994;2023-12-20T22:46:35;2.9;87.6
72919;SHT30;68407;55.694;26.994;2023-12-20T22:51:45;2.8;87.8
72919;SHT30;68407;55.694;26.994;2023-12-20T22:56:59;2.8;88.2
72919;SHT30;68407;55.694;26.994;2023-12-20T23:02:13;2.7;88.5
72919;SHT30;68407;55.694;26.994;2023-12-20T23:07:23;2.7;88.7
72919;SHT30;68407;55.694;26.994;2023-12-20T23:12:15;2.7;88.8
72919;SHT30;68407;55.694;26.994;2023-12-20T23:16:55;2.7;88.9
72919;SHT30;68407;55.694;26.994;2023-12-20T23:21:37;2.6;89.2
72919;SHT30;68407;55.694;26.994;2023-12-20T23:26:37;2.6;89.3
72919;SHT30;68407;55.694;26.994;2023-12-20T23:31:37;2.6;89.3
72919;SHT30;68407;55.694;26.994;2023-12-20T23:36:43;2.6;89.4
72919;SHT30;68407;55.694;26.994;2023-12-20T23:41:43;2.6;89.6
72919;SHT30;68407;55.694;26.994;2023-12-20T23:46:45;2.5;89.8
72919;SHT30;68407;55.694;26.994;2023-12-20T23:52:11;2.6;89.8
72919;SHT30;68407;55.694;26.994;2023-12-20T23:57:25;2.6;89.9
